Weather at Aalen-Heidenheim/Elchingen Airport

Public forecast

Using degrees Celsius for public forecast. Weather courtesy of forecast.io.

Closest aviation weather report (METAR) to Aalen-Heidenheim/Elchingen Airport

Closest report is Adolf Würth Airport, 27.9 nm (51.6 km) NW. Retrieved 2020/09/23 09:20 UTC (5 minutes ago):

EDTY 230920Z 26008KT 230V300 CAVOK 18/12 Q1010

Closest aviation forecast (TAF) to Aalen-Heidenheim/Elchingen Airport

Forecast is more than 12 hours old.

Closest forecast is Augsburg Airport, 33.9 nm (62.8 km) SE. Retrieved 2009/12/02 06:00 UTC (11 years ago):

TAF COR EDMA 020600Z 0206/0220 VRB03KT 3000 BR SCT004 PROB40 TEMPO 0206/0208 0600 FG VV002 BECMG 0208/0210 9999